sensor_id;sensor_type;location;lat;lon;timestamp;P1;durP1;ratioP1;P2;durP2;ratioP2
18290;SDS011;9271;48.590;8.866;2024-01-25T00:01:20;10.00;;;2.70;;
18290;SDS011;9271;48.590;8.866;2024-01-25T00:03:48;12.87;;;2.50;;
18290;SDS011;9271;48.590;8.866;2024-01-25T00:06:15;8.80;;;2.50;;
18290;SDS011;9271;48.590;8.866;2024-01-25T00:08:42;10.23;;;2.77;;
18290;SDS011;9271;48.590;8.866;2024-01-25T00:11:08;10.20;;;2.40;;
18290;SDS011;9271;48.590;8.866;2024-01-25T00:13:35;9.93;;;2.40;;
18290;SDS011;9271;48.590;8.866;2024-01-25T00:16:02;11.07;;;2.40;;
18290;SDS011;9271;48.590;8.866;2024-01-25T00:18:30;7.27;;;2.07;;
18290;SDS011;9271;48.590;8.866;2024-01-25T00:20:58;8.90;;;2.73;;
18290;SDS011;9271;48.590;8.866;2024-01-25T00:23:25;6.43;;;2.23;;
18290;SDS011;9271;48.590;8.866;2024-01-25T00:25:51;10.40;;;2.73;;
18290;SDS011;9271;48.590;8.866;2024-01-25T00:28:18;9.10;;;2.10;;
18290;SDS011;9271;48.590;8.866;2024-01-25T00:30:45;8.63;;;2.43;;
18290;SDS011;9271;48.590;8.866;2024-01-25T00:33:11;4.03;;;1.83;;
18290;SDS011;9271;48.590;8.866;2024-01-25T00:35:38;8.33;;;1.93;;
18290;SDS011;9271;48.590;8.866;2024-01-25T00:38:07;8.40;;;1.83;;
18290;SDS011;9271;48.590;8.866;2024-01-25T00:40:34;11.50;;;2.33;;
18290;SDS011;9271;48.590;8.866;2024-01-25T00:43:01;5.97;;;1.73;;
18290;SDS011;9271;48.590;8.866;2024-01-25T00:45:29;10.53;;;2.33;;
18290;SDS011;9271;48.590;8.866;2024-01-25T00:47:56;8.87;;;2.00;;
18290;SDS011;9271;48.590;8.866;2024-01-25T00:50:23;8.07;;;2.17;;
18290;SDS011;9271;48.590;8.866;2024-01-25T00:52:51;5.60;;;1.70;;
18290;SDS011;9271;48.590;8.866;2024-01-25T00:55:20;7.63;;;1.80;;
18290;SDS011;9271;48.590;8.866;2024-01-25T00:57:47;6.77;;;1.80;;
18290;SDS011;9271;48.590;8.866;2024-01-25T01:00:14;6.17;;;1.93;;
18290;SDS011;9271;48.590;8.866;2024-01-25T01:02:42;4.47;;;1.77;;
18290;SDS011;9271;48.590;8.866;2024-01-25T01:05:10;8.80;;;2.30;;
18290;SDS011;9271;48.590;8.866;2024-01-25T01:07:38;6.03;;;1.93;;
18290;SDS011;9271;48.590;8.866;2024-01-25T01:10:06;6.20;;;2.57;;
18290;SDS011;9271;48.590;8.866;2024-01-25T01:12:35;7.97;;;2.07;;
18290;SDS011;9271;48.590;8.866;2024-01-25T01:15:02;4.63;;;2.20;;
18290;SDS011;9271;48.590;8.866;2024-01-25T01:17:29;7.53;;;2.10;;
18290;SDS011;9271;48.590;8.866;2024-01-25T01:19:55;10.87;;;2.50;;
18290;SDS011;9271;48.590;8.866;2024-01-25T01:22:22;7.23;;;2.10;;
18290;SDS011;9271;48.590;8.866;2024-01-25T01:24:49;5.97;;;2.10;;
18290;SDS011;9271;48.590;8.866;2024-01-25T01:27:15;6.97;;;1.87;;
18290;SDS011;9271;48.590;8.866;2024-01-25T01:29:43;9.17;;;2.17;;
18290;SDS011;9271;48.590;8.866;2024-01-25T01:32:10;11.57;;;2.90;;
18290;SDS011;9271;48.590;8.866;2024-01-25T01:34:37;9.13;;;2.43;;
18290;SDS011;9271;48.590;8.866;2024-01-25T01:37:03;10.63;;;2.40;;
18290;SDS011;9271;48.590;8.866;2024-01-25T01:39:30;12.70;;;2.87;;
18290;SDS011;9271;48.590;8.866;2024-01-25T01:41:57;10.97;;;2.17;;
18290;SDS011;9271;48.590;8.866;2024-01-25T01:44:23;9.20;;;2.50;;
18290;SDS011;9271;48.590;8.866;2024-01-25T01:46:51;6.80;;;2.13;;
18290;SDS011;9271;48.590;8.866;2024-01-25T01:49:19;7.77;;;2.50;;
18290;SDS011;9271;48.590;8.866;2024-01-25T01:51:47;11.37;;;2.20;;
18290;SDS011;9271;48.590;8.866;2024-01-25T01:54:13;6.57;;;2.00;;
18290;SDS011;9271;48.590;8.866;2024-01-25T01:56:40;5.13;;;1.73;;
18290;SDS011;9271;48.590;8.866;2024-01-25T01:59:08;8.97;;;2.03;;
18290;SDS011;9271;48.590;8.866;2024-01-25T02:01:36;6.40;;;1.90;;
18290;SDS011;9271;48.590;8.866;2024-01-25T02:04:04;9.73;;;2.13;;
18290;SDS011;9271;48.590;8.866;2024-01-25T02:06:31;7.40;;;1.90;;
18290;SDS011;9271;48.590;8.866;2024-01-25T02:08:58;6.27;;;2.43;;
18290;SDS011;9271;48.590;8.866;2024-01-25T02:11:26;13.50;;;4.30;;
18290;SDS011;9271;48.590;8.866;2024-01-25T02:13:53;11.03;;;2.60;;
18290;SDS011;9271;48.590;8.866;2024-01-25T02:16:19;5.20;;;1.60;;
18290;SDS011;9271;48.590;8.866;2024-01-25T02:18:46;8.70;;;2.03;;
18290;SDS011;9271;48.590;8.866;2024-01-25T02:21:15;10.17;;;2.90;;
18290;SDS011;9271;48.590;8.866;2024-01-25T02:23:43;7.37;;;2.37;;
18290;SDS011;9271;48.590;8.866;2024-01-25T02:26:09;9.93;;;2.70;;
18290;SDS011;9271;48.590;8.866;2024-01-25T02:28:36;6.67;;;1.93;;
18290;SDS011;9271;48.590;8.866;2024-01-25T02:31:03;10.33;;;2.60;;
18290;SDS011;9271;48.590;8.866;2024-01-25T02:33:30;7.30;;;2.20;;
18290;SDS011;9271;48.590;8.866;2024-01-25T02:35:56;9.80;;;2.73;;
18290;SDS011;9271;48.590;8.866;2024-01-25T02:38:23;7.37;;;2.03;;
18290;SDS011;9271;48.590;8.866;2024-01-25T02:40:51;11.23;;;2.60;;
18290;SDS011;9271;48.590;8.866;2024-01-25T02:43:18;8.97;;;1.97;;
18290;SDS011;9271;48.590;8.866;2024-01-25T02:45:45;5.30;;;1.80;;
18290;SDS011;9271;48.590;8.866;2024-01-25T02:48:13;9.73;;;2.43;;
18290;SDS011;9271;48.590;8.866;2024-01-25T02:50:40;6.93;;;2.23;;
18290;SDS011;9271;48.590;8.866;2024-01-25T02:53:06;8.37;;;1.70;;
18290;SDS011;9271;48.590;8.866;2024-01-25T02:55:33;5.90;;;1.70;;
18290;SDS011;9271;48.590;8.866;2024-01-25T02:58:01;3.63;;;1.70;;
18290;SDS011;9271;48.590;8.866;2024-01-25T03:00:28;5.60;;;2.10;;
18290;SDS011;9271;48.590;8.866;2024-01-25T03:02:54;4.30;;;1.80;;
18290;SDS011;9271;48.590;8.866;2024-01-25T03:05:21;7.33;;;1.57;;
18290;SDS011;9271;48.590;8.866;2024-01-25T03:07:48;5.03;;;1.60;;
18290;SDS011;9271;48.590;8.866;2024-01-25T03:10:14;7.10;;;1.90;;
18290;SDS011;9271;48.590;8.866;2024-01-25T03:12:41;8.90;;;2.10;;
18290;SDS011;9271;48.590;8.866;2024-01-25T03:15:10;4.37;;;1.60;;
18290;SDS011;9271;48.590;8.866;2024-01-25T03:17:37;6.07;;;1.77;;
18290;SDS011;9271;48.590;8.866;2024-01-25T03:20:04;4.07;;;1.57;;
18290;SDS011;9271;48.590;8.866;2024-01-25T03:22:32;6.37;;;1.97;;
18290;SDS011;9271;48.590;8.866;2024-01-25T03:24:58;5.80;;;2.00;;
18290;SDS011;9271;48.590;8.866;2024-01-25T03:27:25;4.77;;;1.47;;
18290;SDS011;9271;48.590;8.866;2024-01-25T03:29:52;4.53;;;1.50;;
18290;SDS011;9271;48.590;8.866;2024-01-25T03:32:20;4.17;;;1.70;;
18290;SDS011;9271;48.590;8.866;2024-01-25T03:34:46;4.90;;;1.90;;
18290;SDS011;9271;48.590;8.866;2024-01-25T03:37:12;9.60;;;2.97;;
18290;SDS011;9271;48.590;8.866;2024-01-25T03:39:38;5.27;;;2.00;;
18290;SDS011;9271;48.590;8.866;2024-01-25T03:42:05;5.70;;;1.43;;
18290;SDS011;9271;48.590;8.866;2024-01-25T03:44:32;3.13;;;1.30;;
18290;SDS011;9271;48.590;8.866;2024-01-25T03:46:59;3.23;;;1.20;;
18290;SDS011;9271;48.590;8.866;2024-01-25T03:49:26;3.53;;;1.00;;
18290;SDS011;9271;48.590;8.866;2024-01-25T03:51:53;6.23;;;1.57;;
18290;SDS011;9271;48.590;8.866;2024-01-25T03:54:20;4.23;;;1.40;;
18290;SDS011;9271;48.590;8.866;2024-01-25T03:56:46;4.37;;;1.57;;
18290;SDS011;9271;48.590;8.866;2024-01-25T03:59:13;4.93;;;1.40;;
18290;SDS011;9271;48.590;8.866;2024-01-25T04:01:43;4.37;;;1.30;;
18290;SDS011;9271;48.590;8.866;2024-01-25T04:04:11;4.47;;;1.40;;
18290;SDS011;9271;48.590;8.866;2024-01-25T04:06:41;4.63;;;1.70;;
18290;SDS011;9271;48.590;8.866;2024-01-25T04:09:08;6.37;;;2.30;;
18290;SDS011;9271;48.590;8.866;2024-01-25T04:11:36;4.90;;;1.40;;
18290;SDS011;9271;48.590;8.866;2024-01-25T04:14:03;1.93;;;0.97;;
18290;SDS011;9271;48.590;8.866;2024-01-25T04:16:30;3.33;;;1.40;;
18290;SDS011;9271;48.590;8.866;2024-01-25T04:18:58;2.97;;;1.30;;
18290;SDS011;9271;48.590;8.866;2024-01-25T04:21:26;5.40;;;1.50;;
18290;SDS011;9271;48.590;8.866;2024-01-25T04:23:54;5.77;;;1.07;;
18290;SDS011;9271;48.590;8.866;2024-01-25T04:26:21;1.97;;;1.17;;
18290;SDS011;9271;48.590;8.866;2024-01-25T04:28:48;5.37;;;1.40;;
18290;SDS011;9271;48.590;8.866;2024-01-25T04:31:14;5.80;;;1.20;;
18290;SDS011;9271;48.590;8.866;2024-01-25T04:33:41;5.57;;;1.87;;
18290;SDS011;9271;48.590;8.866;2024-01-25T04:36:08;4.13;;;1.30;;
18290;SDS011;9271;48.590;8.866;2024-01-25T04:38:34;5.43;;;1.50;;
18290;SDS011;9271;48.590;8.866;2024-01-25T04:41:02;5.03;;;1.40;;
18290;SDS011;9271;48.590;8.866;2024-01-25T04:43:33;7.13;;;1.20;;
18290;SDS011;9271;48.590;8.866;2024-01-25T04:46:00;7.37;;;1.73;;
18290;SDS011;9271;48.590;8.866;2024-01-25T04:48:27;3.77;;;1.37;;
18290;SDS011;9271;48.590;8.866;2024-01-25T04:50:55;3.47;;;1.17;;
18290;SDS011;9271;48.590;8.866;2024-01-25T04:53:22;5.20;;;1.70;;
18290;SDS011;9271;48.590;8.866;2024-01-25T04:55:53;6.70;;;1.53;;
18290;SDS011;9271;48.590;8.866;2024-01-25T04:58:27;6.47;;;1.67;;
18290;SDS011;9271;48.590;8.866;2024-01-25T05:00:54;3.90;;;1.37;;
18290;SDS011;9271;48.590;8.866;2024-01-25T05:03:21;3.80;;;1.33;;
18290;SDS011;9271;48.590;8.866;2024-01-25T05:05:47;5.40;;;1.53;;
18290;SDS011;9271;48.590;8.866;2024-01-25T05:08:14;6.63;;;1.40;;
18290;SDS011;9271;48.590;8.866;2024-01-25T05:10:41;6.23;;;1.77;;
18290;SDS011;9271;48.590;8.866;2024-01-25T05:13:08;5.40;;;1.63;;
18290;SDS011;9271;48.590;8.866;2024-01-25T05:15:36;3.30;;;1.40;;
18290;SDS011;9271;48.590;8.866;2024-01-25T05:18:03;7.37;;;1.63;;
18290;SDS011;9271;48.590;8.866;2024-01-25T05:20:30;6.33;;;1.70;;
18290;SDS011;9271;48.590;8.866;2024-01-25T05:22:59;6.20;;;1.53;;
18290;SDS011;9271;48.590;8.866;2024-01-25T05:25:26;4.87;;;1.60;;
18290;SDS011;9271;48.590;8.866;2024-01-25T05:27:52;4.33;;;1.57;;
18290;SDS011;9271;48.590;8.866;2024-01-25T05:30:19;4.47;;;1.70;;
18290;SDS011;9271;48.590;8.866;2024-01-25T05:32:47;8.07;;;1.60;;
18290;SDS011;9271;48.590;8.866;2024-01-25T05:35:14;4.57;;;1.57;;
18290;SDS011;9271;48.590;8.866;2024-01-25T05:37:41;8.17;;;1.80;;
18290;SDS011;9271;48.590;8.866;2024-01-25T05:40:09;6.90;;;1.90;;
18290;SDS011;9271;48.590;8.866;2024-01-25T05:42:36;3.87;;;1.63;;
18290;SDS011;9271;48.590;8.866;2024-01-25T05:45:02;5.23;;;1.53;;
18290;SDS011;9271;48.590;8.866;2024-01-25T05:47:30;6.83;;;1.60;;
18290;SDS011;9271;48.590;8.866;2024-01-25T05:49:58;4.70;;;1.60;;
18290;SDS011;9271;48.590;8.866;2024-01-25T05:52:25;5.27;;;1.60;;
18290;SDS011;9271;48.590;8.866;2024-01-25T05:54:51;7.63;;;1.77;;
18290;SDS011;9271;48.590;8.866;2024-01-25T05:57:18;5.37;;;1.80;;
18290;SDS011;9271;48.590;8.866;2024-01-25T05:59:45;3.77;;;1.60;;
18290;SDS011;9271;48.590;8.866;2024-01-25T06:02:12;4.10;;;1.60;;
18290;SDS011;9271;48.590;8.866;2024-01-25T06:04:39;3.33;;;1.30;;
18290;SDS011;9271;48.590;8.866;2024-01-25T06:07:07;5.40;;;1.50;;
18290;SDS011;9271;48.590;8.866;2024-01-25T06:09:34;5.80;;;1.73;;
18290;SDS011;9271;48.590;8.866;2024-01-25T06:12:00;5.13;;;1.70;;
18290;SDS011;9271;48.590;8.866;2024-01-25T06:14:28;3.23;;;1.30;;
18290;SDS011;9271;48.590;8.866;2024-01-25T06:16:55;9.03;;;2.40;;
18290;SDS011;9271;48.590;8.866;2024-01-25T06:19:22;7.87;;;2.57;;
18290;SDS011;9271;48.590;8.866;2024-01-25T06:21:49;11.73;;;4.00;;
18290;SDS011;9271;48.590;8.866;2024-01-25T06:24:17;9.83;;;4.90;;
18290;SDS011;9271;48.590;8.866;2024-01-25T06:26:44;11.90;;;7.00;;
18290;SDS011;9271;48.590;8.866;2024-01-25T06:29:11;11.73;;;6.33;;
18290;SDS011;9271;48.590;8.866;2024-01-25T06:31:40;13.30;;;7.03;;
18290;SDS011;9271;48.590;8.866;2024-01-25T06:34:08;14.23;;;6.90;;
18290;SDS011;9271;48.590;8.866;2024-01-25T06:36:34;12.40;;;6.83;;
18290;SDS011;9271;48.590;8.866;2024-01-25T06:39:01;11.30;;;4.67;;
18290;SDS011;9271;48.590;8.866;2024-01-25T06:41:30;9.63;;;4.17;;
18290;SDS011;9271;48.590;8.866;2024-01-25T06:43:57;8.90;;;3.70;;
18290;SDS011;9271;48.590;8.866;2024-01-25T06:46:24;11.67;;;4.80;;
18290;SDS011;9271;48.590;8.866;2024-01-25T06:48:51;11.97;;;7.53;;
18290;SDS011;9271;48.590;8.866;2024-01-25T06:51:18;9.73;;;4.70;;
18290;SDS011;9271;48.590;8.866;2024-01-25T06:53:45;9.20;;;3.90;;
18290;SDS011;9271;48.590;8.866;2024-01-25T06:56:11;10.63;;;4.40;;
18290;SDS011;9271;48.590;8.866;2024-01-25T06:58:39;7.77;;;3.43;;
18290;SDS011;9271;48.590;8.866;2024-01-25T07:01:06;6.17;;;3.80;;
18290;SDS011;9271;48.590;8.866;2024-01-25T07:03:33;8.40;;;3.60;;
18290;SDS011;9271;48.590;8.866;2024-01-25T07:05:59;8.70;;;3.20;;
18290;SDS011;9271;48.590;8.866;2024-01-25T07:08:26;8.50;;;3.67;;
18290;SDS011;9271;48.590;8.866;2024-01-25T07:10:52;7.37;;;3.40;;
18290;SDS011;9271;48.590;8.866;2024-01-25T07:13:20;10.90;;;3.33;;
18290;SDS011;9271;48.590;8.866;2024-01-25T07:15:48;6.13;;;2.93;;
18290;SDS011;9271;48.590;8.866;2024-01-25T07:18:15;7.50;;;3.13;;
18290;SDS011;9271;48.590;8.866;2024-01-25T07:20:42;8.90;;;3.30;;
18290;SDS011;9271;48.590;8.866;2024-01-25T07:23:09;10.03;;;3.87;;
18290;SDS011;9271;48.590;8.866;2024-01-25T07:25:35;7.17;;;3.50;;
18290;SDS011;9271;48.590;8.866;2024-01-25T07:28:02;9.57;;;3.20;;
18290;SDS011;9271;48.590;8.866;2024-01-25T07:30:29;8.47;;;3.17;;
18290;SDS011;9271;48.590;8.866;2024-01-25T07:32:57;6.37;;;2.97;;
18290;SDS011;9271;48.590;8.866;2024-01-25T07:35:24;7.60;;;3.00;;
18290;SDS011;9271;48.590;8.866;2024-01-25T07:37:50;10.17;;;3.00;;
18290;SDS011;9271;48.590;8.866;2024-01-25T07:40:17;14.27;;;2.90;;
18290;SDS011;9271;48.590;8.866;2024-01-25T07:42:43;13.27;;;4.47;;
18290;SDS011;9271;48.590;8.866;2024-01-25T07:45:12;9.53;;;3.63;;
18290;SDS011;9271;48.590;8.866;2024-01-25T07:47:40;6.60;;;3.40;;
18290;SDS011;9271;48.590;8.866;2024-01-25T07:50:08;7.87;;;3.20;;
18290;SDS011;9271;48.590;8.866;2024-01-25T07:52:35;6.80;;;2.50;;
18290;SDS011;9271;48.590;8.866;2024-01-25T07:55:02;9.93;;;2.50;;
18290;SDS011;9271;48.590;8.866;2024-01-25T07:57:29;9.00;;;3.30;;
18290;SDS011;9271;48.590;8.866;2024-01-25T07:59:56;6.40;;;3.30;;
18290;SDS011;9271;48.590;8.866;2024-01-25T08:02:22;8.90;;;3.47;;
18290;SDS011;9271;48.590;8.866;2024-01-25T08:04:49;4.63;;;2.40;;
18290;SDS011;9271;48.590;8.866;2024-01-25T08:07:17;9.57;;;3.57;;
18290;SDS011;9271;48.590;8.866;2024-01-25T08:09:44;7.73;;;2.50;;
18290;SDS011;9271;48.590;8.866;2024-01-25T08:12:11;5.13;;;2.50;;
18290;SDS011;9271;48.590;8.866;2024-01-25T08:14:38;6.77;;;2.10;;
18290;SDS011;9271;48.590;8.866;2024-01-25T08:17:04;6.03;;;2.27;;
18290;SDS011;9271;48.590;8.866;2024-01-25T08:19:31;5.77;;;2.50;;
18290;SDS011;9271;48.590;8.866;2024-01-25T08:21:58;5.00;;;2.50;;
18290;SDS011;9271;48.590;8.866;2024-01-25T08:24:26;7.43;;;1.97;;
18290;SDS011;9271;48.590;8.866;2024-01-25T08:26:52;2.63;;;1.97;;
18290;SDS011;9271;48.590;8.866;2024-01-25T08:29:19;7.03;;;1.80;;
18290;SDS011;9271;48.590;8.866;2024-01-25T08:31:46;7.00;;;2.73;;
18290;SDS011;9271;48.590;8.866;2024-01-25T08:34:13;6.27;;;2.63;;
18290;SDS011;9271;48.590;8.866;2024-01-25T08:36:39;5.87;;;2.67;;
18290;SDS011;9271;48.590;8.866;2024-01-25T08:39:06;5.03;;;2.40;;
18290;SDS011;9271;48.590;8.866;2024-01-25T08:41:35;3.57;;;2.17;;
18290;SDS011;9271;48.590;8.866;2024-01-25T08:44:01;4.87;;;2.40;;
18290;SDS011;9271;48.590;8.866;2024-01-25T08:46:28;4.63;;;2.00;;
18290;SDS011;9271;48.590;8.866;2024-01-25T08:48:55;4.50;;;2.40;;
18290;SDS011;9271;48.590;8.866;2024-01-25T08:51:21;5.67;;;2.60;;
18290;SDS011;9271;48.590;8.866;2024-01-25T08:53:48;4.20;;;2.20;;
18290;SDS011;9271;48.590;8.866;2024-01-25T08:56:16;4.10;;;2.50;;
18290;SDS011;9271;48.590;8.866;2024-01-25T08:58:44;4.53;;;2.40;;
18290;SDS011;9271;48.590;8.866;2024-01-25T09:01:12;4.53;;;2.13;;
18290;SDS011;9271;48.590;8.866;2024-01-25T09:03:39;7.70;;;2.30;;
18290;SDS011;9271;48.590;8.866;2024-01-25T09:06:06;5.00;;;2.13;;
18290;SDS011;9271;48.590;8.866;2024-01-25T09:08:33;4.73;;;2.00;;
18290;SDS011;9271;48.590;8.866;2024-01-25T09:11:00;4.93;;;2.00;;
18290;SDS011;9271;48.590;8.866;2024-01-25T09:13:26;5.00;;;2.10;;
18290;SDS011;9271;48.590;8.866;2024-01-25T09:15:54;4.90;;;2.17;;
18290;SDS011;9271;48.590;8.866;2024-01-25T09:18:21;4.97;;;1.87;;
18290;SDS011;9271;48.590;8.866;2024-01-25T09:20:48;4.80;;;1.97;;
18290;SDS011;9271;48.590;8.866;2024-01-25T09:23:15;4.97;;;2.37;;
18290;SDS011;9271;48.590;8.866;2024-01-25T09:25:42;5.70;;;3.07;;
18290;SDS011;9271;48.590;8.866;2024-01-25T09:28:09;4.90;;;2.13;;
18290;SDS011;9271;48.590;8.866;2024-01-25T09:30:37;6.43;;;2.47;;
18290;SDS011;9271;48.590;8.866;2024-01-25T09:33:05;6.60;;;2.70;;
18290;SDS011;9271;48.590;8.866;2024-01-25T09:35:32;6.17;;;2.33;;
18290;SDS011;9271;48.590;8.866;2024-01-25T09:37:58;6.30;;;2.33;;
18290;SDS011;9271;48.590;8.866;2024-01-25T09:40:25;7.73;;;2.50;;
18290;SDS011;9271;48.590;8.866;2024-01-25T09:42:52;6.53;;;2.30;;
18290;SDS011;9271;48.590;8.866;2024-01-25T09:45:19;4.87;;;2.00;;
18290;SDS011;9271;48.590;8.866;2024-01-25T09:47:46;6.53;;;2.13;;
18290;SDS011;9271;48.590;8.866;2024-01-25T09:50:14;7.50;;;2.20;;
18290;SDS011;9271;48.590;8.866;2024-01-25T09:52:41;5.40;;;1.80;;
18290;SDS011;9271;48.590;8.866;2024-01-25T09:55:11;6.77;;;2.53;;
18290;SDS011;9271;48.590;8.866;2024-01-25T09:57:39;2.87;;;1.63;;
18290;SDS011;9271;48.590;8.866;2024-01-25T10:00:11;4.83;;;2.43;;
18290;SDS011;9271;48.590;8.866;2024-01-25T10:02:39;6.20;;;2.40;;
18290;SDS011;9271;48.590;8.866;2024-01-25T10:05:06;6.17;;;2.20;;
18290;SDS011;9271;48.590;8.866;2024-01-25T10:07:38;5.30;;;2.07;;
18290;SDS011;9271;48.590;8.866;2024-01-25T10:10:05;7.33;;;2.40;;
18290;SDS011;9271;48.590;8.866;2024-01-25T10:12:32;5.83;;;2.30;;
18290;SDS011;9271;48.590;8.866;2024-01-25T10:14:59;6.30;;;2.27;;
18290;SDS011;9271;48.590;8.866;2024-01-25T10:17:27;7.00;;;2.20;;
18290;SDS011;9271;48.590;8.866;2024-01-25T10:19:54;6.50;;;2.40;;
18290;SDS011;9271;48.590;8.866;2024-01-25T10:22:21;5.87;;;1.97;;
18290;SDS011;9271;48.590;8.866;2024-01-25T10:24:49;7.30;;;2.30;;
18290;SDS011;9271;48.590;8.866;2024-01-25T10:27:18;6.03;;;1.80;;
18290;SDS011;9271;48.590;8.866;2024-01-25T10:29:44;3.70;;;2.17;;
18290;SDS011;9271;48.590;8.866;2024-01-25T10:32:11;5.37;;;2.37;;
18290;SDS011;9271;48.590;8.866;2024-01-25T10:34:38;3.90;;;2.10;;
18290;SDS011;9271;48.590;8.866;2024-01-25T10:37:05;5.03;;;2.40;;
18290;SDS011;9271;48.590;8.866;2024-01-25T10:39:33;4.43;;;2.40;;
18290;SDS011;9271;48.590;8.866;2024-01-25T10:42:01;5.07;;;2.20;;
18290;SDS011;9271;48.590;8.866;2024-01-25T10:44:28;6.67;;;2.40;;
18290;SDS011;9271;48.590;8.866;2024-01-25T10:46:54;6.37;;;2.50;;
18290;SDS011;9271;48.590;8.866;2024-01-25T10:49:22;9.40;;;3.17;;
18290;SDS011;9271;48.590;8.866;2024-01-25T10:51:50;6.53;;;2.43;;
18290;SDS011;9271;48.590;8.866;2024-01-25T10:54:18;6.30;;;2.40;;
18290;SDS011;9271;48.590;8.866;2024-01-25T10:56:46;5.37;;;2.20;;
18290;SDS011;9271;48.590;8.866;2024-01-25T10:59:15;4.57;;;2.10;;
18290;SDS011;9271;48.590;8.866;2024-01-25T11:01:43;6.47;;;2.67;;
18290;SDS011;9271;48.590;8.866;2024-01-25T11:04:13;6.70;;;2.33;;
18290;SDS011;9271;48.590;8.866;2024-01-25T11:06:42;6.57;;;2.47;;
18290;SDS011;9271;48.590;8.866;2024-01-25T11:09:10;5.80;;;2.43;;
18290;SDS011;9271;48.590;8.866;2024-01-25T11:11:43;6.83;;;2.50;;
18290;SDS011;9271;48.590;8.866;2024-01-25T11:14:11;6.63;;;2.20;;
18290;SDS011;9271;48.590;8.866;2024-01-25T11:16:42;7.37;;;2.27;;
18290;SDS011;9271;48.590;8.866;2024-01-25T11:19:15;5.22;;;2.30;;
18290;SDS011;9271;48.590;8.866;2024-01-25T11:21:43;4.10;;;2.13;;
18290;SDS011;9271;48.590;8.866;2024-01-25T11:24:11;5.70;;;2.08;;
18290;SDS011;9271;48.590;8.866;2024-01-25T11:26:39;4.70;;;2.30;;
18290;SDS011;9271;48.590;8.866;2024-01-25T11:29:06;6.82;;;2.33;;
18290;SDS011;9271;48.590;8.866;2024-01-25T11:31:33;4.55;;;2.10;;
18290;SDS011;9271;48.590;8.866;2024-01-25T11:34:02;7.53;;;2.45;;
18290;SDS011;9271;48.590;8.866;2024-01-25T11:36:28;6.82;;;2.25;;
18290;SDS011;9271;48.590;8.866;2024-01-25T11:38:55;4.60;;;2.03;;
18290;SDS011;9271;48.590;8.866;2024-01-25T11:41:22;6.00;;;2.30;;
18290;SDS011;9271;48.590;8.866;2024-01-25T11:43:49;6.30;;;3.30;;
18290;SDS011;9271;48.590;8.866;2024-01-25T11:46:16;8.45;;;3.60;;
18290;SDS011;9271;48.590;8.866;2024-01-25T11:48:43;6.10;;;3.20;;
18290;SDS011;9271;48.590;8.866;2024-01-25T11:51:11;5.65;;;2.00;;
18290;SDS011;9271;48.590;8.866;2024-01-25T11:53:38;4.32;;;2.10;;
18290;SDS011;9271;48.590;8.866;2024-01-25T11:56:06;5.45;;;1.90;;
18290;SDS011;9271;48.590;8.866;2024-01-25T11:58:34;8.20;;;2.72;;
18290;SDS011;9271;48.590;8.866;2024-01-25T12:01:03;4.00;;;1.93;;
18290;SDS011;9271;48.590;8.866;2024-01-25T12:03:32;5.10;;;2.00;;
18290;SDS011;9271;48.590;8.866;2024-01-25T12:06:00;4.07;;;2.22;;
18290;SDS011;9271;48.590;8.866;2024-01-25T12:08:31;4.45;;;2.03;;
18290;SDS011;9271;48.590;8.866;2024-01-25T12:11:07;5.38;;;2.38;;
18290;SDS011;9271;48.590;8.866;2024-01-25T12:13:34;4.68;;;2.20;;
18290;SDS011;9271;48.590;8.866;2024-01-25T12:16:02;5.15;;;1.90;;
18290;SDS011;9271;48.590;8.866;2024-01-25T12:18:29;6.57;;;2.45;;
18290;SDS011;9271;48.590;8.866;2024-01-25T12:20:57;2.78;;;1.60;;
18290;SDS011;9271;48.590;8.866;2024-01-25T12:23:33;4.20;;;2.00;;
18290;SDS011;9271;48.590;8.866;2024-01-25T12:26:01;4.32;;;1.70;;
18290;SDS011;9271;48.590;8.866;2024-01-25T12:28:28;5.75;;;2.08;;
18290;SDS011;9271;48.590;8.866;2024-01-25T12:30:56;4.97;;;1.90;;
18290;SDS011;9271;48.590;8.866;2024-01-25T12:33:23;6.50;;;2.28;;
18290;SDS011;9271;48.590;8.866;2024-01-25T12:35:49;6.72;;;2.35;;
18290;SDS011;9271;48.590;8.866;2024-01-25T12:38:16;6.82;;;2.20;;
18290;SDS011;9271;48.590;8.866;2024-01-25T12:40:45;4.70;;;1.75;;
18290;SDS011;9271;48.590;8.866;2024-01-25T12:43:13;4.10;;;2.08;;
18290;SDS011;9271;48.590;8.866;2024-01-25T12:45:41;4.35;;;2.20;;
18290;SDS011;9271;48.590;8.866;2024-01-25T12:48:07;2.88;;;1.92;;
18290;SDS011;9271;48.590;8.866;2024-01-25T12:50:34;5.68;;;2.60;;
18290;SDS011;9271;48.590;8.866;2024-01-25T12:53:01;6.03;;;2.20;;
18290;SDS011;9271;48.590;8.866;2024-01-25T12:55:28;3.60;;;1.90;;
18290;SDS011;9271;48.590;8.866;2024-01-25T12:57:57;4.05;;;1.90;;
18290;SDS011;9271;48.590;8.866;2024-01-25T13:00:25;4.80;;;1.77;;
18290;SDS011;9271;48.590;8.866;2024-01-25T13:02:52;8.63;;;2.00;;
18290;SDS011;9271;48.590;8.866;2024-01-25T13:05:19;3.67;;;1.90;;
18290;SDS011;9271;48.590;8.866;2024-01-25T13:07:46;3.03;;;1.73;;
18290;SDS011;9271;48.590;8.866;2024-01-25T13:10:13;2.50;;;1.60;;
18290;SDS011;9271;48.590;8.866;2024-01-25T13:12:40;5.77;;;2.03;;
18290;SDS011;9271;48.590;8.866;2024-01-25T13:15:08;5.10;;;2.03;;
18290;SDS011;9271;48.590;8.866;2024-01-25T13:17:35;3.87;;;1.60;;
18290;SDS011;9271;48.590;8.866;2024-01-25T13:20:02;3.30;;;1.93;;
18290;SDS011;9271;48.590;8.866;2024-01-25T13:22:30;3.73;;;1.60;;
18290;SDS011;9271;48.590;8.866;2024-01-25T13:24:58;3.47;;;1.50;;
18290;SDS011;9271;48.590;8.866;2024-01-25T13:27:25;4.90;;;1.80;;
18290;SDS011;9271;48.590;8.866;2024-01-25T13:29:51;1.83;;;1.40;;
18290;SDS011;9271;48.590;8.866;2024-01-25T13:32:19;5.60;;;1.87;;
18290;SDS011;9271;48.590;8.866;2024-01-25T13:34:46;3.60;;;1.70;;
18290;SDS011;9271;48.590;8.866;2024-01-25T13:37:12;5.63;;;1.67;;
18290;SDS011;9271;48.590;8.866;2024-01-25T13:39:39;3.70;;;1.60;;
18290;SDS011;9271;48.590;8.866;2024-01-25T13:42:06;2.20;;;1.57;;
18290;SDS011;9271;48.590;8.866;2024-01-25T13:44:32;3.03;;;1.40;;
18290;SDS011;9271;48.590;8.866;2024-01-25T13:46:59;4.23;;;1.67;;
18290;SDS011;9271;48.590;8.866;2024-01-25T13:49:28;3.83;;;1.57;;
18290;SDS011;9271;48.590;8.866;2024-01-25T13:51:54;5.27;;;1.70;;
18290;SDS011;9271;48.590;8.866;2024-01-25T13:54:21;3.27;;;1.43;;
18290;SDS011;9271;48.590;8.866;2024-01-25T13:56:47;5.90;;;1.80;;
18290;SDS011;9271;48.590;8.866;2024-01-25T13:59:14;3.97;;;1.83;;
18290;SDS011;9271;48.590;8.866;2024-01-25T14:01:41;3.77;;;1.57;;
18290;SDS011;9271;48.590;8.866;2024-01-25T14:04:07;6.37;;;1.20;;
18290;SDS011;9271;48.590;8.866;2024-01-25T14:06:35;6.20;;;1.57;;
18290;SDS011;9271;48.590;8.866;2024-01-25T14:09:02;6.07;;;1.47;;
18290;SDS011;9271;48.590;8.866;2024-01-25T14:11:30;3.93;;;1.60;;
18290;SDS011;9271;48.590;8.866;2024-01-25T14:13:57;5.33;;;1.80;;
18290;SDS011;9271;48.590;8.866;2024-01-25T14:16:23;2.40;;;1.37;;
18290;SDS011;9271;48.590;8.866;2024-01-25T14:18:50;4.43;;;1.70;;
18290;SDS011;9271;48.590;8.866;2024-01-25T14:21:16;2.60;;;1.60;;
18290;SDS011;9271;48.590;8.866;2024-01-25T14:23:47;3.50;;;1.73;;
18290;SDS011;9271;48.590;8.866;2024-01-25T14:26:13;3.17;;;1.60;;
18290;SDS011;9271;48.590;8.866;2024-01-25T14:28:40;5.13;;;1.57;;
18290;SDS011;9271;48.590;8.866;2024-01-25T14:31:07;4.53;;;1.70;;
18290;SDS011;9271;48.590;8.866;2024-01-25T14:33:33;4.87;;;1.77;;
18290;SDS011;9271;48.590;8.866;2024-01-25T14:36:00;7.03;;;2.00;;
18290;SDS011;9271;48.590;8.866;2024-01-25T14:38:28;3.67;;;1.60;;
18290;SDS011;9271;48.590;8.866;2024-01-25T14:40:56;3.10;;;1.40;;
18290;SDS011;9271;48.590;8.866;2024-01-25T14:43:23;3.97;;;1.57;;
18290;SDS011;9271;48.590;8.866;2024-01-25T14:45:50;5.43;;;1.83;;
18290;SDS011;9271;48.590;8.866;2024-01-25T14:48:17;3.43;;;1.50;;
18290;SDS011;9271;48.590;8.866;2024-01-25T14:50:44;3.03;;;1.17;;
18290;SDS011;9271;48.590;8.866;2024-01-25T14:53:10;1.80;;;1.00;;
18290;SDS011;9271;48.590;8.866;2024-01-25T14:55:38;2.37;;;1.07;;
18290;SDS011;9271;48.590;8.866;2024-01-25T14:58:06;2.40;;;1.30;;
18290;SDS011;9271;48.590;8.866;2024-01-25T15:00:33;3.73;;;1.23;;